Time;durP1;ratioP1;P1;durP2;ratioP2;P2;SDS_P1;SDS_P2;PMS_P1;PMS_P2;Temp;Humidity;BMP_temperature;BMP_pressure;BME280_temperature;BME280_humidity;BME280_pressure;Samples;Min_cycle;Max_cycle;Signal;HPM_P1;HPM_P2
2023/06/11 00:00:26;;;;;;;15.02;11.20;;;23.20;29.30;;;;;;5034931;28;20181;-69
2023/06/11 00:02:56;;;;;;;14.38;13.18;;;23.20;94.60;;;;;;5052691;28;20165;-69
2023/06/11 00:05:24;;;;;;;14.20;12.77;;;23.10;99.90;;;;;;5052770;28;20189;-69
2023/06/11 00:07:51;;;;;;;18.25;16.20;;;23.10;99.90;;;;;;5052415;28;20170;-67
2023/06/11 00:10:17;;;;;;;13.20;11.85;;;23.10;99.90;;;;;;5052680;28;20216;-68
2023/06/11 00:12:43;;;;;;;16.95;12.45;;;23.10;99.90;;;;;;5034501;28;20208;-68
2023/06/11 00:15:09;;;;;;;11.50;10.43;;;23.00;99.90;;;;;;5052596;28;20667;-68
2023/06/11 00:17:35;;;;;;;12.20;10.32;;;23.00;99.90;;;;;;5052544;28;20208;-68
2023/06/11 00:20:09;;;;;;;12.95;11.70;;;23.10;99.90;;;;;;5035323;28;20193;-69
2023/06/11 00:22:35;;;;;;;15.30;13.73;;;23.00;99.90;;;;;;5056122;28;20706;-67
2023/06/11 00:25:01;;;;;;;12.00;10.77;;;23.10;99.90;;;;;;5055888;28;20166;-68
2023/06/11 00:27:26;;;;;;;13.50;12.30;;;23.00;99.90;;;;;;5056222;28;20659;-68
2023/06/11 00:29:53;;;;;;;13.82;12.43;;;22.90;99.90;;;;;;5056107;28;20243;-68
2023/06/11 00:32:19;;;;;;;18.20;14.45;;;22.90;99.90;;;;;;5056019;28;20162;-69
2023/06/11 00:34:45;;;;;;;16.38;14.70;;;22.90;99.90;;;;;;5055793;28;20256;-68
2023/06/11 00:37:11;;;;;;;14.70;13.20;;;22.80;99.90;;;;;;5056111;28;20169;-69
2023/06/11 00:39:37;;;;;;;12.45;11.25;;;22.80;1.00;;;;;;5055707;28;20264;-67
2023/06/11 00:42:03;;;;;;;14.90;13.35;;;22.80;1.00;;;;;;5038063;28;20592;-67
2023/06/11 00:44:29;;;;;;;22.23;19.05;;;22.70;1.00;;;;;;5055691;28;20664;-68
2023/06/11 00:46:57;;;;;;;17.58;14.25;;;22.70;1.00;;;;;;5055789;28;20170;-68
2023/06/11 00:49:23;;;;;;;16.85;14.15;;;22.70;1.00;;;;;;5055725;28;20727;-68
2023/06/11 00:51:49;;;;;;;16.02;14.32;;;22.70;1.00;;;;;;5055757;28;20195;-68
2023/06/11 00:54:16;;;;;;;22.73;18.65;;;22.60;1.00;;;;;;5055555;28;20688;-68
2023/06/11 00:56:45;;;;;;;21.42;17.77;;;22.60;1.00;;;;;;5055611;28;20162;-68
2023/06/11 00:59:13;;;;;;;18.25;13.85;;;22.60;1.00;;;;;;5055451;28;20652;-67
2023/06/11 01:01:45;;;;;;;16.58;14.90;;;22.50;1.00;;;;;;5037600;28;20173;-68
2023/06/11 01:04:18;;;;;;;11.68;10.57;;;22.50;1.00;;;;;;5055472;28;20170;-67
2023/06/11 01:06:49;;;;;;;11.57;10.10;;;22.50;1.00;;;;;;5055508;28;20173;-68
2023/06/11 01:09:22;;;;;;;10.63;9.65;;;22.50;1.00;;;;;;5055031;28;20217;-67
2023/06/11 01:11:53;;;;;;;10.57;9.68;;;22.40;1.00;;;;;;5055375;28;20162;-69
2023/06/11 01:14:19;;;;;;;12.93;10.32;;;22.40;1.00;;;;;;5037436;28;20200;-68
2023/06/11 01:16:52;;;;;;;10.60;9.70;;;22.40;1.00;;;;;;5055154;28;20168;-67
2023/06/11 01:19:40;;;;;;;10.48;9.55;;;22.40;1.00;;;;;;5055250;28;20173;-68
2023/06/11 01:22:30;;;;;;;14.90;13.40;;;22.40;1.00;;;;;;5055189;28;20173;-67
2023/06/11 01:25:29;;;;;;;17.00;13.55;;;22.30;1.00;;;;;;5054776;28;20174;-67
2023/06/11 01:28:08;;;;;;;17.45;15.38;;;22.40;1.00;;;;;;5037090;28;20227;-68
2023/06/11 01:30:37;;;;;;;12.68;11.20;;;22.30;1.00;;;;;;5054840;28;20583;-68
2023/06/11 01:33:05;;;;;;;11.38;10.43;;;22.10;1.00;;;;;;5035994;28;20261;-67
2023/06/11 01:35:33;;;;;;;12.52;10.55;;;22.10;1.00;;;;;;5054445;28;20213;-67
2023/06/11 01:37:59;;;;;;;11.23;10.18;;;22.00;1.00;;;;;;5054566;28;20624;-68
2023/06/11 01:40:26;;;;;;;11.77;10.77;;;22.00;1.00;;;;;;5054679;28;20632;-68
2023/06/11 01:42:53;;;;;;;11.73;10.55;;;22.00;1.00;;;;;;5036792;28;20575;-67
2023/06/11 01:45:21;;;;;;;15.05;11.63;;;21.90;1.00;;;;;;5054326;28;20235;-67
2023/06/11 01:47:48;;;;;;;12.48;11.30;;;21.90;1.00;;;;;;5054589;28;20625;-67
2023/06/11 01:50:15;;;;;;;13.32;11.00;;;21.80;1.00;;;;;;5054419;28;20275;-67
2023/06/11 01:52:41;;;;;;;13.55;11.52;;;21.80;1.00;;;;;;5054284;28;20200;-68
2023/06/11 01:55:08;;;;;;;12.55;10.80;;;21.80;1.00;;;;;;5054461;28;20648;-67
2023/06/11 01:57:34;;;;;;;10.98;10.00;;;21.70;1.00;;;;;;5054428;28;20166;-68
2023/06/11 02:00:00;;;;;;;12.30;11.10;;;21.70;1.00;;;;;;5054397;28;20176;-67
2023/06/11 02:02:27;;;;;;;15.13;10.88;;;21.70;1.00;;;;;;5054260;28;20161;-68
2023/06/11 02:04:53;;;;;;;14.15;11.15;;;21.60;1.00;;;;;;5054263;28;20184;-67
2023/06/11 02:07:19;;;;;;;12.52;10.93;;;21.60;1.00;;;;;;5053931;28;20169;-68
2023/06/11 02:09:45;;;;;;;11.82;10.75;;;21.70;1.00;;;;;;5036088;28;20315;-68
2023/06/11 02:12:11;;;;;;;11.38;10.27;;;21.70;1.00;;;;;;5035956;28;20173;-67
2023/06/11 02:14:36;;;;;;;11.60;10.48;;;21.70;1.00;;;;;;5036006;28;20534;-68
2023/06/11 02:17:02;;;;;;;11.60;10.50;;;21.70;1.00;;;;;;5053727;28;20169;-67
2023/06/11 02:19:28;;;;;;;11.20;9.98;;;21.70;1.00;;;;;;5035823;28;20534;-67
2023/06/11 02:21:53;;;;;;;12.38;11.00;;;21.70;1.00;;;;;;5035777;28;20200;-68
2023/06/11 02:24:19;;;;;;;11.68;10.48;;;21.80;1.00;;;;;;5035909;28;20204;-67
2023/06/11 02:26:44;;;;;;;11.20;10.30;;;21.70;1.00;;;;;;5053890;28;20560;-68
2023/06/11 02:29:10;;;;;;;11.27;10.27;;;21.70;1.00;;;;;;5035739;28;20672;-68
2023/06/11 02:31:36;;;;;;;11.60;10.60;;;21.70;1.00;;;;;;5035855;28;20181;-68
2023/06/11 02:34:01;;;;;;;11.68;10.48;;;21.50;1.00;;;;;;5053400;28;20169;-67
2023/06/11 02:36:27;;;;;;;11.77;10.77;;;21.30;1.00;;;;;;5053011;28;20696;-67
2023/06/11 02:38:52;;;;;;;12.25;10.90;;;21.10;1.00;;;;;;5035769;28;20193;-67
2023/06/11 02:41:18;;;;;;;12.05;10.85;;;21.00;1.00;;;;;;5053686;28;20628;-67
2023/06/11 02:43:44;;;;;;;13.32;10.80;;;21.00;1.00;;;;;;5053368;28;20197;-67
2023/06/11 02:46:09;;;;;;;12.27;10.13;;;20.90;1.00;;;;;;5035836;28;20648;-67
2023/06/11 02:48:35;;;;;;;11.30;10.30;;;20.80;1.00;;;;;;5053474;28;20220;-67
2023/06/11 02:51:01;;;;;;;12.35;11.02;;;20.70;1.00;;;;;;5053068;28;20193;-67
2023/06/11 02:53:26;;;;;;;12.18;11.10;;;20.60;1.00;;;;;;5053462;28;20173;-67
2023/06/11 02:55:52;;;;;;;11.77;10.77;;;20.60;1.00;;;;;;5053047;28;20180;-67
2023/06/11 02:58:17;;;;;;;12.93;10.93;;;20.50;1.00;;;;;;5053412;28;20625;-68
2023/06/11 03:00:44;;;;;;;12.95;11.75;;;20.40;1.00;;;;;;5035460;28;20181;-68
2023/06/11 03:03:09;;;;;;;12.68;11.48;;;20.40;1.00;;;;;;5053342;28;20165;-68
2023/06/11 03:05:35;;;;;;;12.05;10.93;;;20.40;1.00;;;;;;5034661;28;20173;-68
2023/06/11 03:08:01;;;;;;;13.07;11.82;;;20.50;1.00;;;;;;5035287;28;20668;-68
2023/06/11 03:10:28;;;;;;;13.85;11.10;;;20.60;1.00;;;;;;5035398;28;20521;-68
2023/06/11 03:12:54;;;;;;;13.07;11.68;;;20.60;1.00;;;;;;5053211;28;20621;-67
2023/06/11 03:15:20;;;;;;;13.30;11.35;;;20.60;1.00;;;;;;5052930;28;20192;-68
2023/06/11 03:17:45;;;;;;;12.93;11.55;;;20.40;1.00;;;;;;5053089;28;20665;-67
2023/06/11 03:20:11;;;;;;;15.00;11.60;;;20.40;1.00;;;;;;5052530;28;20219;-67
2023/06/11 03:22:37;;;;;;;14.23;11.13;;;20.40;1.00;;;;;;5052862;28;20327;-67
2023/06/11 03:25:03;;;;;;;13.43;11.45;;;20.40;1.00;;;;;;5052948;28;20660;-68
2023/06/11 03:27:29;;;;;;;12.55;11.35;;;20.40;1.00;;;;;;5053124;28;20165;-66
2023/06/11 03:29:55;;;;;;;12.73;11.52;;;20.40;1.00;;;;;;5052761;28;20216;-67
2023/06/11 03:32:20;;;;;;;12.05;10.88;;;20.40;1.00;;;;;;5052699;28;20177;-68
2023/06/11 03:34:46;;;;;;;13.55;11.20;;;20.40;1.00;;;;;;5052217;28;20177;-68
2023/06/11 03:37:12;;;;;;;12.52;11.38;;;20.40;1.00;;;;;;5052935;28;20197;-68
2023/06/11 03:39:37;;;;;;;13.20;12.10;;;20.40;1.00;;;;;;5052998;28;20223;-67
2023/06/11 03:42:03;;;;;;;13.25;12.13;;;20.50;1.00;;;;;;5052875;28;20176;-68
2023/06/11 03:44:29;;;;;;;13.23;11.93;;;20.50;1.00;;;;;;5052706;28;20632;-67
2023/06/11 03:46:55;;;;;;;11.98;10.95;;;20.60;1.00;;;;;;5052611;28;20231;-67
2023/06/11 03:49:21;;;;;;;13.05;11.75;;;20.70;1.00;;;;;;5052281;28;20215;-68
2023/06/11 03:51:46;;;;;;;15.07;11.45;;;20.80;1.00;;;;;;5035031;28;20709;-67
2023/06/11 03:54:12;;;;;;;14.02;11.15;;;20.90;1.00;;;;;;5052504;28;20181;-67
2023/06/11 03:56:37;;;;;;;11.88;10.68;;;21.00;1.00;;;;;;5056033;28;20172;-67
2023/06/11 03:59:03;;;;;;;12.18;11.07;;;21.30;1.00;;;;;;5056695;28;20185;-67
2023/06/11 04:01:30;;;;;;;10.85;9.93;;;21.50;1.00;;;;;;5056389;28;20629;-69
2023/06/11 04:03:56;;;;;;;11.82;10.57;;;21.60;1.00;;;;;;5056208;28;20189;-68
2023/06/11 04:06:22;;;;;;;12.10;11.00;;;21.70;1.00;;;;;;5056236;28;20165;-69
2023/06/11 04:08:47;;;;;;;12.25;10.93;;;21.90;1.00;;;;;;5056159;28;20288;-69
2023/06/11 04:11:13;;;;;;;12.10;10.88;;;22.00;1.00;;;;;;5056566;28;20629;-67
2023/06/11 04:13:39;;;;;;;13.15;11.38;;;22.00;1.00;;;;;;5056256;28;20173;-68
2023/06/11 04:16:05;;;;;;;12.25;11.13;;;22.10;1.00;;;;;;5056432;28;20180;-68
2023/06/11 04:18:32;;;;;;;11.45;10.55;;;22.10;1.00;;;;;;5037979;28;20505;-67
2023/06/11 04:20:58;;;;;;;12.88;10.55;;;22.50;1.00;;;;;;5056054;28;20208;-68
2023/06/11 04:23:23;;;;;;;11.85;10.65;;;22.60;1.00;;;;;;5056159;28;20185;-68
2023/06/11 04:25:49;;;;;;;11.35;10.20;;;23.10;1.00;;;;;;5055392;28;20572;-68
2023/06/11 04:28:15;;;;;;;10.73;9.82;;;23.40;99.90;;;;;;5055785;28;20165;-69
2023/06/11 04:30:41;;;;;;;10.93;9.88;;;23.40;99.90;;;;;;5055926;28;20243;-68
2023/06/11 04:33:07;;;;;;;11.65;10.52;;;23.70;99.90;;;;;;5055524;28;20593;-69
2023/06/11 04:35:34;;;;;;;11.35;10.25;;;23.70;1.00;;;;;;5055435;28;20339;-69
2023/06/11 04:38:02;;;;;;;10.95;10.02;;;24.20;1.00;;;;;;5055923;28;20158;-69
2023/06/11 04:40:28;;;;;;;10.38;9.15;;;24.60;1.00;;;;;;5055751;28;20173;-69
2023/06/11 04:42:54;;;;;;;11.02;10.07;;;25.10;1.00;;;;;;5055558;28;20272;-69
2023/06/11 04:45:20;;;;;;;10.38;9.27;;;25.40;1.00;;;;;;5055212;28;20165;-69
2023/06/11 04:47:46;;;;;;;11.25;9.27;;;25.30;99.90;;;;;;5054821;28;20166;-70
2023/06/11 04:50:12;;;;;;;11.40;10.20;;;25.40;99.90;;;;;;5055473;28;20703;-70
2023/06/11 04:52:38;;;;;;;11.40;10.15;;;25.20;1.00;;;;;;5055511;28;20173;-70
2023/06/11 04:55:05;;;;;;;10.70;9.80;;;25.80;1.00;;;;;;5055540;28;20169;-70
2023/06/11 04:57:34;;;;;;;10.30;9.40;;;25.50;1.00;;;;;;5055299;28;20161;-70
2023/06/11 05:00:01;;;;;;;9.70;8.80;;;26.00;99.90;;;;;;5055428;28;20200;-70
2023/06/11 05:02:27;;;;;;;9.85;8.85;;;25.70;1.00;;;;;;5055150;28;20659;-69
2023/06/11 05:04:53;;;;;;;9.88;9.15;;;26.10;99.90;;;;;;5055257;28;20252;-69
2023/06/11 05:07:20;;;;;;;8.80;8.10;;;26.40;1.00;;;;;;5054594;28;20204;-69
2023/06/11 05:09:45;;;;;;;9.70;8.90;;;26.80;99.90;;;;;;5054874;28;20665;-70
2023/06/11 05:12:12;;;;;;;9.27;8.20;;;27.10;1.00;;;;;;5054952;28;20260;-70
2023/06/11 05:14:38;;;;;;;9.50;8.65;;;27.80;99.90;;;;;;5055508;28;20179;-70
2023/06/11 05:17:04;;;;;;;8.35;7.75;;;27.90;99.90;;;;;;5054667;28;20633;-70
2023/06/11 05:19:30;;;;;;;9.32;8.40;;;28.50;1.00;;;;;;5054998;28;20173;-69
2023/06/11 05:21:55;;;;;;;9.52;8.82;;;28.50;1.00;;;;;;5037217;28;20197;-69
2023/06/11 05:24:21;;;;;;;9.60;8.70;;;28.00;93.30;;;;;;5054894;28;20205;-69
2023/06/11 05:26:47;;;;;;;8.80;7.95;;;28.00;1.00;;;;;;5036726;28;20710;-70
2023/06/11 05:29:13;;;;;;;9.23;8.32;;;28.20;51.50;;;;;;5054871;28;20296;-69
2023/06/11 05:31:39;;;;;;;8.73;8.20;;;28.80;1.00;;;;;;5054533;28;20606;-68
2023/06/11 05:34:04;;;;;;;9.10;8.30;;;28.40;1.00;;;;;;5054601;28;20684;-69
2023/06/11 05:36:31;;;;;;;9.75;8.85;;;27.70;99.90;;;;;;5036234;28;20312;-69
2023/06/11 05:38:56;;;;;;;9.05;8.35;;;27.70;99.90;;;;;;5054316;28;20184;-69
2023/06/11 05:41:22;;;;;;;8.80;7.97;;;28.50;9.40;;;;;;5054280;28;20256;-70
2023/06/11 05:43:48;;;;;;;9.00;8.25;;;28.90;1.00;;;;;;5054318;28;20202;-69
2023/06/11 05:46:15;;;;;;;8.82;8.07;;;29.60;1.00;;;;;;5053940;28;20169;-70
2023/06/11 05:48:43;;;;;;;11.85;8.25;;;30.50;1.00;;;;;;5053843;28;20201;-69
2023/06/11 05:51:09;;;;;;;11.20;7.90;;;30.60;1.00;;;;;;5054151;28;20252;-70
2023/06/11 05:53:35;;;;;;;9.07;8.18;;;31.40;99.90;;;;;;5036210;28;20172;-70
2023/06/11 05:56:04;;;;;;;9.40;8.25;;;31.10;99.90;;;;;;5035690;28;20181;-69
2023/06/11 05:58:32;;;;;;;9.10;8.20;;;30.80;99.90;;;;;;5035838;28;20731;-69
2023/06/11 06:01:02;;;;;;;8.85;8.15;;;31.20;99.90;;;;;;5054345;28;20176;-70
2023/06/11 06:03:31;;;;;;;8.70;8.00;;;31.40;99.90;;;;;;5054394;28;20193;-70
2023/06/11 06:05:59;;;;;;;8.60;7.82;;;32.30;99.90;;;;;;5054148;28;20173;-70
2023/06/11 06:08:26;;;;;;;8.77;7.82;;;33.40;99.90;;;;;;5053833;28;20205;-69
2023/06/11 06:10:52;;;;;;;8.40;7.65;;;33.10;99.90;;;;;;5053897;28;20176;-70
2023/06/11 06:13:18;;;;;;;8.80;8.02;;;33.00;99.90;;;;;;5035673;28;20185;-69
2023/06/11 06:15:44;;;;;;;8.02;7.35;;;31.10;99.90;;;;;;5053839;28;20271;-69
2023/06/11 06:18:10;;;;;;;8.50;7.70;;;30.90;99.90;;;;;;5053160;28;20597;-69
2023/06/11 06:20:35;;;;;;;7.60;7.07;;;30.80;99.90;;;;;;5053623;28;20169;-71
2023/06/11 06:23:01;;;;;;;8.73;7.72;;;31.30;99.90;;;;;;5053269;28;20169;-71
2023/06/11 06:25:27;;;;;;;8.52;7.70;;;31.40;99.90;;;;;;5053464;28;20212;-69
2023/06/11 06:27:53;;;;;;;8.45;7.65;;;29.90;99.90;;;;;;5053481;28;20219;-70
2023/06/11 06:30:18;;;;;;;8.18;7.40;;;29.90;1.00;;;;;;5053674;28;20208;-70
2023/06/11 06:32:44;;;;;;;8.77;7.40;;;31.70;99.90;;;;;;5053712;28;20169;-70
2023/06/11 06:35:11;;;;;;;7.82;7.28;;;32.20;99.90;;;;;;5052797;28;20680;-71
2023/06/11 06:37:36;;;;;;;9.40;7.70;;;33.30;99.90;;;;;;5053217;28;20197;-70
2023/06/11 06:40:03;;;;;;;8.13;7.43;;;34.00;99.90;;;;;;5053164;28;20180;-70
2023/06/11 06:42:29;;;;;;;8.07;7.35;;;34.70;99.90;;;;;;5052842;28;20192;-70
2023/06/11 06:44:54;;;;;;;7.80;7.07;;;33.50;99.90;;;;;;5053056;28;20680;-70
2023/06/11 06:47:20;;;;;;;7.70;7.10;;;33.70;99.90;;;;;;5053210;28;20230;-70
2023/06/11 06:49:45;;;;;;;9.45;7.60;;;34.00;99.90;;;;;;5053159;28;20204;-69
2023/06/11 06:52:11;;;;;;;7.47;6.88;;;34.20;99.90;;;;;;5052889;28;20161;-70
2023/06/11 06:54:38;;;;;;;7.95;7.25;;;33.50;99.90;;;;;;5052925;28;20574;-70
2023/06/11 06:57:05;;;;;;;8.15;7.45;;;33.80;99.90;;;;;;5052385;28;20173;-70
2023/06/11 06:59:30;;;;;;;7.65;7.15;;;33.20;99.90;;;;;;5052983;28;20181;-69
2023/06/11 07:01:56;;;;;;;7.85;7.25;;;32.20;99.90;;;;;;5053050;28;20177;-68
2023/06/11 07:04:22;;;;;;;8.38;7.57;;;31.30;99.90;;;;;;5053273;28;20263;-69
2023/06/11 07:06:47;;;;;;;8.18;7.68;;;31.70;99.90;;;;;;5035261;28;20171;-70
2023/06/11 07:09:13;;;;;;;8.27;7.65;;;33.30;99.90;;;;;;5052769;28;20296;-70
2023/06/11 07:11:38;;;;;;;8.27;7.60;;;33.90;99.90;;;;;;5052469;28;20174;-69
2023/06/11 07:14:04;;;;;;;8.10;7.40;;;34.90;99.90;;;;;;5053175;28;20169;-70
2023/06/11 07:16:30;;;;;;;7.85;7.20;;;35.20;99.90;;;;;;5053206;28;20231;-69
2023/06/11 07:18:56;;;;;;;7.47;6.90;;;35.50;99.90;;;;;;5052689;28;20177;-70
2023/06/11 07:21:23;;;;;;;8.55;7.07;;;36.20;99.90;;;;;;5052305;28;20169;-70
2023/06/11 07:23:49;;;;;;;7.55;7.05;;;37.90;99.90;;;;;;5052819;28;20940;-70
2023/06/11 07:26:15;;;;;;;8.18;7.35;;;37.40;82.40;;;;;;5051910;28;20193;-70
2023/06/11 07:28:41;;;;;;;7.20;6.70;;;37.50;66.40;;;;;;5052670;28;20189;-70
2023/06/11 07:31:07;;;;;;;7.28;6.78;;;37.50;60.60;;;;;;5055496;28;20661;-69
2023/06/11 07:33:33;;;;;;;6.95;6.35;;;35.80;53.90;;;;;;5056603;28;20165;-69
2023/06/11 07:35:59;;;;;;;7.05;6.60;;;35.80;76.90;;;;;;5056057;28;20598;-70
2023/06/11 07:38:25;;;;;;;6.80;6.38;;;36.30;83.30;;;;;;5056591;28;20177;-71
2023/06/11 07:40:52;;;;;;;7.07;6.53;;;37.80;59.20;;;;;;5055777;28;20176;-71
2023/06/11 07:43:17;;;;;;;6.65;6.25;;;39.10;30.30;;;;;;5056435;28;20624;-69
2023/06/11 07:45:43;;;;;;;7.88;7.05;;;38.50;21.20;;;;;;5038590;28;20184;-69
2023/06/11 07:48:10;;;;;;;7.78;6.78;;;38.00;17.70;;;;;;5056545;28;20181;-70
2023/06/11 07:50:37;;;;;;;7.38;6.68;;;38.10;23.80;;;;;;5056123;28;20196;-69
2023/06/11 07:53:03;;;;;;;7.13;6.63;;;34.80;43.40;;;;;;5056796;28;20176;-70
2023/06/11 07:55:28;;;;;;;7.15;6.72;;;34.80;78.80;;;;;;5055746;28;20176;-70
2023/06/11 07:57:54;;;;;;;7.07;6.57;;;34.80;86.60;;;;;;5056004;28;20180;-69
2023/06/11 08:00:20;;;;;;;7.05;6.65;;;34.70;90.00;;;;;;5056644;28;20173;-69
2023/06/11 08:02:46;;;;;;;7.80;7.30;;;34.60;99.90;;;;;;5055874;28;20637;-70
2023/06/11 08:05:17;;;;;;;7.05;6.50;;;33.60;99.90;;;;;;5056007;28;20185;-70
2023/06/11 08:07:46;;;;;;;7.00;6.60;;;34.60;99.90;;;;;;5056212;28;20165;-71
2023/06/11 08:10:12;;;;;;;6.70;6.30;;;35.40;99.90;;;;;;5055790;28;20569;-69
2023/06/11 08:12:38;;;;;;;7.00;6.47;;;36.10;91.80;;;;;;5055180;28;20271;-70
2023/06/11 08:15:04;;;;;;;6.78;6.22;;;36.90;67.80;;;;;;5055972;28;20172;-71
2023/06/11 08:17:30;;;;;;;7.00;6.55;;;36.90;49.90;;;;;;5055432;28;20165;-71
2023/06/11 08:19:55;;;;;;;6.43;6.03;;;35.80;54.20;;;;;;5055664;28;20177;-70
2023/06/11 08:22:21;;;;;;;6.70;6.30;;;36.50;58.00;;;;;;5055483;28;20240;-70
2023/06/11 08:24:46;;;;;;;7.20;6.72;;;37.00;46.60;;;;;;5055415;28;20177;-70
2023/06/11 08:27:12;;;;;;;7.65;7.15;;;37.20;41.90;;;;;;5055968;28;20164;-70
2023/06/11 08:29:38;;;;;;;7.30;6.90;;;36.80;41.80;;;;;;5037720;28;20208;-71
2023/06/11 08:32:04;;;;;;;6.53;6.13;;;36.70;46.20;;;;;;5055666;28;20165;-70
2023/06/11 08:34:30;;;;;;;6.80;6.35;;;36.90;46.90;;;;;;5055827;28;20188;-72
2023/06/11 08:36:57;;;;;;;7.13;6.72;;;37.20;30.30;;;;;;5055456;28;20695;-71
2023/06/11 08:39:23;;;;;;;7.22;6.60;;;36.30;38.60;;;;;;5054917;28;20691;-70
2023/06/11 08:41:49;;;;;;;7.05;6.45;;;36.50;47.40;;;;;;5037049;28;20172;-71
2023/06/11 08:44:15;;;;;;;7.10;6.70;;;37.20;43.80;;;;;;5055038;28;20660;-72
2023/06/11 08:46:43;;;;;;;7.30;6.80;;;36.90;34.90;;;;;;5055324;28;20593;-71
2023/06/11 08:49:21;;;;;;;7.15;6.75;;;36.20;53.10;;;;;;5055066;28;20631;-71
2023/06/11 08:51:48;;;;;;;7.90;7.10;;;35.60;66.00;;;;;;5055144;28;20610;-70
2023/06/11 08:54:15;;;;;;;7.45;6.95;;;34.20;96.20;;;;;;5036773;28;20546;-70
2023/06/11 08:56:41;;;;;;;7.72;7.22;;;34.40;99.90;;;;;;5055251;28;20636;-71
2023/06/11 08:59:07;;;;;;;7.43;6.82;;;34.70;99.90;;;;;;5055088;28;20176;-71
2023/06/11 09:01:32;;;;;;;8.40;7.70;;;35.60;99.90;;;;;;5054680;28;20330;-71
2023/06/11 09:03:59;;;;;;;7.38;6.82;;;36.30;74.30;;;;;;5054860;28;20197;-71
2023/06/11 09:06:25;;;;;;;7.40;6.90;;;35.50;94.50;;;;;;5055274;28;20169;-70
2023/06/11 09:09:07;;;;;;;7.28;6.80;;;35.90;94.40;;;;;;5054143;28;20250;-71
2023/06/11 09:11:34;;;;;;;7.10;6.60;;;35.20;85.20;;;;;;5037074;28;20172;-71
2023/06/11 09:14:01;;;;;;;6.70;6.30;;;35.40;95.20;;;;;;5054668;28;20244;-72
2023/06/11 09:16:27;;;;;;;7.53;6.95;;;36.90;85.10;;;;;;5055494;28;20230;-72
2023/06/11 09:18:55;;;;;;;7.22;6.82;;;37.20;49.80;;;;;;5054527;28;20172;-69
2023/06/11 09:21:24;;;;;;;6.68;6.28;;;37.20;46.90;;;;;;5054427;28;20217;-71
2023/06/11 09:23:50;;;;;;;7.35;6.65;;;37.00;57.40;;;;;;5054472;28;20222;-71
2023/06/11 09:26:17;;;;;;;6.90;6.40;;;37.00;46.00;;;;;;5054584;28;20268;-72
2023/06/11 09:28:43;;;;;;;7.72;7.05;;;37.70;43.70;;;;;;5054381;28;20291;-72
2023/06/11 09:31:09;;;;;;;6.38;5.97;;;37.40;38.40;;;;;;5054925;28;20738;-71
2023/06/11 09:33:36;;;;;;;6.25;5.85;;;36.30;27.50;;;;;;5054331;28;20259;-71
2023/06/11 09:36:02;;;;;;;6.68;6.28;;;35.60;53.40;;;;;;5053737;28;20229;-71
2023/06/11 09:38:28;;;;;;;6.45;6.10;;;35.60;58.50;;;;;;5036575;28;20180;-71
2023/06/11 09:40:57;;;;;;;6.07;5.75;;;36.20;49.10;;;;;;5053978;28;20160;-71
2023/06/11 09:43:23;;;;;;;6.50;5.90;;;36.40;41.90;;;;;;5054611;28;20181;-71
2023/06/11 09:45:52;;;;;;;5.63;5.22;;;36.60;33.00;;;;;;5054333;28;20164;-70
2023/06/11 09:48:22;;;;;;;5.65;5.10;;;36.50;25.60;;;;;;5053700;28;20177;-71
2023/06/11 09:50:49;;;;;;;5.90;5.50;;;36.60;26.20;;;;;;5035679;28;20268;-71
2023/06/11 09:53:17;;;;;;;7.35;6.75;;;36.60;28.90;;;;;;5053641;28;20175;-70
2023/06/11 09:55:43;;;;;;;6.75;6.22;;;37.20;38.20;;;;;;5054144;28;20662;-70
2023/06/11 09:58:09;;;;;;;6.30;6.00;;;36.20;28.70;;;;;;5054302;28;20176;-71
2023/06/11 10:00:35;;;;;;;7.55;6.75;;;35.40;42.50;;;;;;5054080;28;20639;-71
2023/06/11 10:03:01;;;;;;;5.75;5.45;;;35.90;46.30;;;;;;5053738;28;20168;-71
2023/06/11 10:05:28;;;;;;;6.55;5.88;;;35.50;46.50;;;;;;5053507;28;20188;-71
2023/06/11 10:08:32;;;;;;;7.20;6.68;;;35.50;47.20;;;;;;5036081;28;20172;-72
2023/06/11 10:11:02;;;;;;;6.03;5.63;;;35.70;52.10;;;;;;4972514;28;20243;-71
2023/06/11 10:13:32;;;;;;;6.35;5.40;;;35.80;41.20;;;;;;4972715;28;20183;-71
2023/06/11 10:16:03;;;;;;;6.05;5.72;;;35.40;37.80;;;;;;4972674;28;20230;-69
2023/06/11 10:18:30;;;;;;;6.30;5.95;;;34.90;60.50;;;;;;4973150;28;20242;-72
2023/06/11 10:21:00;;;;;;;6.40;5.90;;;34.90;68.20;;;;;;4971670;28;20172;-71
2023/06/11 10:23:42;;;;;;;5.60;5.30;;;33.80;76.70;;;;;;4972713;28;20775;-70
2023/06/11 10:26:11;;;;;;;6.13;5.80;;;34.00;94.30;;;;;;4956725;28;20188;-72
2023/06/11 10:28:40;;;;;;;6.55;6.22;;;34.20;93.50;;;;;;4972130;28;20690;-70
2023/06/11 10:31:06;;;;;;;6.40;6.10;;;33.50;99.50;;;;;;4956031;28;20192;-70
2023/06/11 10:33:41;;;;;;;7.35;6.80;;;32.80;99.90;;;;;;4956231;28;20180;-70
2023/06/11 10:36:07;;;;;;;7.32;6.70;;;32.50;99.90;;;;;;4971913;28;20231;-70
2023/06/11 10:38:40;;;;;;;8.45;7.70;;;32.80;99.90;;;;;;4956328;28;20516;-71
2023/06/11 10:41:05;;;;;;;8.35;7.72;;;33.20;99.90;;;;;;4956058;28;20179;-70
2023/06/11 10:43:36;;;;;;;6.68;6.28;;;33.50;99.90;;;;;;4972600;28;20223;-70
2023/06/11 10:46:03;;;;;;;6.22;5.82;;;34.20;99.90;;;;;;5030411;28;20231;-71
2023/06/11 10:48:30;;;;;;;5.90;5.60;;;34.20;99.90;;;;;;5032293;28;20287;-70
2023/06/11 10:51:07;;;;;;;6.35;5.95;;;34.30;99.90;;;;;;5031330;28;20182;-71
2023/06/11 10:53:37;;;;;;;6.30;6.00;;;34.50;99.90;;;;;;5033219;28;20162;-72
2023/06/11 10:56:03;;;;;;;6.82;6.35;;;34.80;99.90;;;;;;5033455;28;20629;-71
2023/06/11 10:58:29;;;;;;;5.75;5.40;;;35.10;99.90;;;;;;5032838;28;20240;-72
2023/06/11 11:00:55;;;;;;;5.78;5.47;;;34.10;99.90;;;;;;5032734;28;20633;-71
2023/06/11 11:03:25;;;;;;;6.50;6.03;;;33.80;99.90;;;;;;5033197;28;20181;-72
2023/06/11 11:05:52;;;;;;;5.38;5.18;;;34.10;99.90;;;;;;5033322;28;20166;-72
2023/06/11 11:08:18;;;;;;;5.60;5.30;;;34.00;99.90;;;;;;5032656;28;20562;-73
2023/06/11 11:10:44;;;;;;;6.68;6.30;;;33.60;99.90;;;;;;5032632;28;20177;-72
2023/06/11 11:13:10;;;;;;;6.43;5.93;;;33.30;99.90;;;;;;5032371;28;20687;-72
2023/06/11 11:15:36;;;;;;;6.13;5.82;;;33.30;99.90;;;;;;5033105;28;20173;-70
2023/06/11 11:18:02;;;;;;;6.15;5.65;;;33.30;99.90;;;;;;5032637;28;20173;-71
2023/06/11 11:20:32;;;;;;;5.35;5.13;;;33.60;99.90;;;;;;5032209;28;20174;-70
2023/06/11 11:22:58;;;;;;;5.60;5.30;;;33.60;99.90;;;;;;5032607;28;20186;-72
2023/06/11 11:25:29;;;;;;;5.88;5.57;;;33.70;99.90;;;;;;5032609;28;20164;-71
2023/06/11 11:27:56;;;;;;;6.30;5.75;;;33.00;99.90;;;;;;5031259;28;20540;-71
2023/06/11 11:30:22;;;;;;;5.38;5.07;;;32.70;99.90;;;;;;5031698;28;20205;-70
2023/06/11 11:32:49;;;;;;;7.30;6.80;;;32.60;99.90;;;;;;5032551;28;20185;-73
2023/06/11 11:35:15;;;;;;;5.40;5.10;;;32.30;99.90;;;;;;5036914;28;20274;-71
2023/06/11 11:37:41;;;;;;;6.18;5.57;;;32.00;99.90;;;;;;5052242;28;20570;-71
2023/06/11 11:40:08;;;;;;;6.00;5.63;;;31.90;99.90;;;;;;5052089;28;20339;-71
2023/06/11 11:42:52;;;;;;;6.30;5.90;;;32.10;99.90;;;;;;5052798;28;20161;-69
2023/06/11 11:45:19;;;;;;;5.47;5.15;;;32.10;99.90;;;;;;5051719;28;20706;-69
2023/06/11 11:47:52;;;;;;;5.38;5.07;;;32.20;99.90;;;;;;5052131;28;20173;-69
2023/06/11 11:50:22;;;;;;;5.57;5.28;;;32.30;99.90;;;;;;5052188;28;20223;-70
2023/06/11 11:53:05;;;;;;;11.20;10.27;;;32.40;99.90;;;;;;5052190;28;20681;-70
2023/06/11 11:55:33;;;;;;;5.72;5.43;;;32.10;99.90;;;;;;5034720;28;20177;-70
2023/06/11 11:58:09;;;;;;;6.93;6.38;;;32.60;99.90;;;;;;5052234;28;20191;-69
2023/06/11 12:00:37;;;;;;;6.50;5.90;;;32.00;99.90;;;;;;5051926;28;20161;-71
2023/06/11 12:03:10;;;;;;;6.78;6.18;;;31.60;99.90;;;;;;5051748;28;20188;-70
2023/06/11 12:05:39;;;;;;;6.88;6.35;;;31.30;99.90;;;;;;5052140;28;20204;-70
2023/06/11 12:08:06;;;;;;;6.50;6.10;;;31.30;99.90;;;;;;5034196;28;20207;-70
2023/06/11 12:10:31;;;;;;;6.97;6.57;;;30.80;99.90;;;;;;5033788;28;20568;-72
2023/06/11 12:13:01;;;;;;;6.10;5.70;;;31.10;99.90;;;;;;5034129;28;20169;-71
2023/06/11 12:15:27;;;;;;;5.93;5.45;;;31.20;99.90;;;;;;5052122;28;20243;-70
2023/06/11 12:17:52;;;;;;;7.10;6.47;;;31.30;99.90;;;;;;5056160;28;20173;-70
2023/06/11 12:20:20;;;;;;;6.30;5.80;;;31.60;99.90;;;;;;5055524;28;20161;-71
2023/06/11 12:22:46;;;;;;;5.57;5.18;;;31.90;99.90;;;;;;5038248;28;20649;-70
2023/06/11 12:25:12;;;;;;;5.93;5.57;;;32.00;99.90;;;;;;5055867;28;20171;-71
2023/06/11 12:27:38;;;;;;;5.85;5.45;;;32.10;99.90;;;;;;5055435;28;20165;-70
2023/06/11 12:30:04;;;;;;;6.03;5.55;;;32.00;99.90;;;;;;5055553;28;20558;-71
2023/06/11 12:32:30;;;;;;;5.53;5.22;;;31.90;99.90;;;;;;5055446;28;20169;-70
2023/06/11 12:34:56;;;;;;;5.60;5.30;;;31.90;99.90;;;;;;5055057;28;20184;-70
2023/06/11 12:37:24;;;;;;;5.97;5.20;;;31.80;99.90;;;;;;5055439;28;20178;-71
2023/06/11 12:39:50;;;;;;;6.18;5.78;;;31.90;99.90;;;;;;5055402;28;20177;-71
2023/06/11 12:42:19;;;;;;;6.30;5.82;;;31.80;99.90;;;;;;5037213;28;20201;-69